sensor_id;sensor_type;location;lat;lon;timestamp;P1;durP1;ratioP1;P2;durP2;ratioP2
57047;SDS011;42934;54.294;18.598;2022-11-15T00:00:26;54.28;;;26.58;;
57047;SDS011;42934;54.294;18.598;2022-11-15T00:03:15;48.80;;;24.42;;
57047;SDS011;42934;54.294;18.598;2022-11-15T00:06:04;50.15;;;24.95;;
57047;SDS011;42934;54.294;18.598;2022-11-15T00:08:51;47.42;;;23.83;;
57047;SDS011;42934;54.294;18.598;2022-11-15T00:11:39;54.03;;;26.73;;
57047;SDS011;42934;54.294;18.598;2022-11-15T00:14:28;53.05;;;25.77;;
57047;SDS011;42934;54.294;18.598;2022-11-15T00:17:16;58.10;;;26.00;;
57047;SDS011;42934;54.294;18.598;2022-11-15T00:20:04;50.03;;;24.02;;
57047;SDS011;42934;54.294;18.598;2022-11-15T00:22:53;57.13;;;27.55;;
57047;SDS011;42934;54.294;18.598;2022-11-15T00:25:40;46.50;;;22.83;;
57047;SDS011;42934;54.294;18.598;2022-11-15T00:28:28;49.33;;;22.38;;
57047;SDS011;42934;54.294;18.598;2022-11-15T00:31:17;52.13;;;24.00;;
57047;SDS011;42934;54.294;18.598;2022-11-15T00:34:05;55.47;;;24.55;;
57047;SDS011;42934;54.294;18.598;2022-11-15T00:36:52;51.80;;;24.73;;
57047;SDS011;42934;54.294;18.598;2022-11-15T00:39:40;55.70;;;26.48;;
57047;SDS011;42934;54.294;18.598;2022-11-15T00:42:28;51.78;;;25.08;;
57047;SDS011;42934;54.294;18.598;2022-11-15T00:45:16;56.67;;;25.58;;
57047;SDS011;42934;54.294;18.598;2022-11-15T00:48:05;58.42;;;25.05;;
57047;SDS011;42934;54.294;18.598;2022-11-15T00:50:53;54.42;;;24.10;;
57047;SDS011;42934;54.294;18.598;2022-11-15T00:53:40;58.10;;;25.38;;
57047;SDS011;42934;54.294;18.598;2022-11-15T00:56:28;55.05;;;24.10;;
57047;SDS011;42934;54.294;18.598;2022-11-15T00:59:16;52.63;;;21.90;;
57047;SDS011;42934;54.294;18.598;2022-11-15T01:02:04;52.17;;;24.05;;
57047;SDS011;42934;54.294;18.598;2022-11-15T01:04:52;51.97;;;23.20;;
57047;SDS011;42934;54.294;18.598;2022-11-15T01:07:40;59.00;;;26.50;;
57047;SDS011;42934;54.294;18.598;2022-11-15T01:10:27;57.30;;;24.83;;
57047;SDS011;42934;54.294;18.598;2022-11-15T01:13:15;67.78;;;27.05;;
57047;SDS011;42934;54.294;18.598;2022-11-15T01:16:06;71.45;;;29.33;;
57047;SDS011;42934;54.294;18.598;2022-11-15T01:18:55;65.30;;;28.35;;
57047;SDS011;42934;54.294;18.598;2022-11-15T01:21:44;67.45;;;27.27;;
57047;SDS011;42934;54.294;18.598;2022-11-15T01:24:34;70.30;;;28.42;;
57047;SDS011;42934;54.294;18.598;2022-11-15T01:27:22;75.30;;;28.98;;
57047;SDS011;42934;54.294;18.598;2022-11-15T01:30:10;67.72;;;27.52;;
57047;SDS011;42934;54.294;18.598;2022-11-15T01:32:58;72.45;;;29.00;;
57047;SDS011;42934;54.294;18.598;2022-11-15T01:35:46;64.07;;;27.25;;
57047;SDS011;42934;54.294;18.598;2022-11-15T01:38:35;72.38;;;29.77;;
57047;SDS011;42934;54.294;18.598;2022-11-15T01:47:25;67.28;;;26.50;;
57047;SDS011;42934;54.294;18.598;2022-11-15T01:50:17;71.32;;;28.15;;
57047;SDS011;42934;54.294;18.598;2022-11-15T01:53:09;69.95;;;27.52;;
57047;SDS011;42934;54.294;18.598;2022-11-15T01:55:58;64.68;;;24.83;;
57047;SDS011;42934;54.294;18.598;2022-11-15T01:58:48;70.53;;;29.23;;
57047;SDS011;42934;54.294;18.598;2022-11-15T02:01:37;70.95;;;28.10;;
57047;SDS011;42934;54.294;18.598;2022-11-15T02:04:25;79.32;;;29.33;;
57047;SDS011;42934;54.294;18.598;2022-11-15T02:07:16;64.15;;;26.80;;
57047;SDS011;42934;54.294;18.598;2022-11-15T02:10:06;72.00;;;29.13;;
57047;SDS011;42934;54.294;18.598;2022-11-15T02:12:56;68.78;;;28.63;;
57047;SDS011;42934;54.294;18.598;2022-11-15T02:15:48;66.97;;;26.02;;
57047;SDS011;42934;54.294;18.598;2022-11-15T02:18:48;69.53;;;25.88;;
57047;SDS011;42934;54.294;18.598;2022-11-15T02:21:40;77.30;;;30.85;;
57047;SDS011;42934;54.294;18.598;2022-11-15T02:24:40;69.00;;;27.42;;
57047;SDS011;42934;54.294;18.598;2022-11-15T02:27:52;77.82;;;29.40;;
57047;SDS011;42934;54.294;18.598;2022-11-15T02:31:02;69.68;;;28.05;;
57047;SDS011;42934;54.294;18.598;2022-11-15T02:33:56;73.03;;;27.70;;
57047;SDS011;42934;54.294;18.598;2022-11-15T02:36:54;86.47;;;32.85;;
57047;SDS011;42934;54.294;18.598;2022-11-15T02:39:58;72.73;;;27.77;;
57047;SDS011;42934;54.294;18.598;2022-11-15T02:42:53;75.95;;;29.60;;
57047;SDS011;42934;54.294;18.598;2022-11-15T02:46:06;70.07;;;27.35;;
57047;SDS011;42934;54.294;18.598;2022-11-15T02:48:59;68.60;;;27.40;;
57047;SDS011;42934;54.294;18.598;2022-11-15T02:51:47;64.85;;;26.10;;
57047;SDS011;42934;54.294;18.598;2022-11-15T02:54:37;64.72;;;26.15;;
57047;SDS011;42934;54.294;18.598;2022-11-15T02:57:27;63.22;;;25.50;;
57047;SDS011;42934;54.294;18.598;2022-11-15T03:00:29;71.05;;;26.00;;
57047;SDS011;42934;54.294;18.598;2022-11-15T03:03:28;61.97;;;27.63;;
57047;SDS011;42934;54.294;18.598;2022-11-15T03:06:29;59.63;;;23.88;;
57047;SDS011;42934;54.294;18.598;2022-11-15T03:09:24;73.63;;;25.90;;
57047;SDS011;42934;54.294;18.598;2022-11-15T03:12:21;67.70;;;27.17;;
57047;SDS011;42934;54.294;18.598;2022-11-15T03:15:16;69.47;;;27.67;;
57047;SDS011;42934;54.294;18.598;2022-11-15T03:18:08;68.70;;;26.13;;
57047;SDS011;42934;54.294;18.598;2022-11-15T03:21:04;76.53;;;26.63;;
57047;SDS011;42934;54.294;18.598;2022-11-15T03:23:54;70.25;;;25.45;;
57047;SDS011;42934;54.294;18.598;2022-11-15T03:26:45;73.03;;;27.60;;
57047;SDS011;42934;54.294;18.598;2022-11-15T03:29:35;74.63;;;28.77;;
57047;SDS011;42934;54.294;18.598;2022-11-15T03:32:26;83.57;;;29.10;;
57047;SDS011;42934;54.294;18.598;2022-11-15T03:35:17;80.47;;;29.48;;
57047;SDS011;42934;54.294;18.598;2022-11-15T03:38:11;84.38;;;28.90;;
57047;SDS011;42934;54.294;18.598;2022-11-15T03:41:04;79.28;;;27.50;;
57047;SDS011;42934;54.294;18.598;2022-11-15T03:43:55;78.78;;;29.38;;
57047;SDS011;42934;54.294;18.598;2022-11-15T03:46:51;78.35;;;27.02;;
57047;SDS011;42934;54.294;18.598;2022-11-15T03:49:49;65.63;;;24.38;;
57047;SDS011;42934;54.294;18.598;2022-11-15T03:52:41;85.15;;;29.92;;
57047;SDS011;42934;54.294;18.598;2022-11-15T03:55:32;80.65;;;28.35;;
57047;SDS011;42934;54.294;18.598;2022-11-15T03:58:20;80.47;;;28.80;;
57047;SDS011;42934;54.294;18.598;2022-11-15T04:01:08;72.75;;;25.90;;
57047;SDS011;42934;54.294;18.598;2022-11-15T04:03:55;80.15;;;27.67;;
57047;SDS011;42934;54.294;18.598;2022-11-15T04:06:43;71.25;;;26.88;;
57047;SDS011;42934;54.294;18.598;2022-11-15T04:09:31;67.20;;;24.38;;
57047;SDS011;42934;54.294;18.598;2022-11-15T04:12:41;73.68;;;27.50;;
57047;SDS011;42934;54.294;18.598;2022-11-15T04:15:31;71.43;;;27.02;;
57047;SDS011;42934;54.294;18.598;2022-11-15T04:18:18;72.15;;;27.02;;
57047;SDS011;42934;54.294;18.598;2022-11-15T04:21:07;82.43;;;28.70;;
57047;SDS011;42934;54.294;18.598;2022-11-15T04:24:12;74.13;;;26.10;;
57047;SDS011;42934;54.294;18.598;2022-11-15T04:27:00;74.47;;;25.67;;
57047;SDS011;42934;54.294;18.598;2022-11-15T04:29:49;60.72;;;22.83;;
57047;SDS011;42934;54.294;18.598;2022-11-15T04:32:36;69.57;;;25.58;;
57047;SDS011;42934;54.294;18.598;2022-11-15T04:35:24;76.60;;;27.35;;
57047;SDS011;42934;54.294;18.598;2022-11-15T04:38:12;68.78;;;25.27;;
57047;SDS011;42934;54.294;18.598;2022-11-15T04:41:00;69.82;;;23.77;;
57047;SDS011;42934;54.294;18.598;2022-11-15T04:43:48;69.10;;;24.05;;
57047;SDS011;42934;54.294;18.598;2022-11-15T04:46:37;74.88;;;27.83;;
57047;SDS011;42934;54.294;18.598;2022-11-15T04:49:25;67.70;;;25.02;;
57047;SDS011;42934;54.294;18.598;2022-11-15T04:52:13;64.38;;;24.27;;
57047;SDS011;42934;54.294;18.598;2022-11-15T04:55:00;75.13;;;26.00;;
57047;SDS011;42934;54.294;18.598;2022-11-15T04:57:59;72.32;;;26.23;;
57047;SDS011;42934;54.294;18.598;2022-11-15T05:00:47;65.95;;;23.23;;
57047;SDS011;42934;54.294;18.598;2022-11-15T05:03:36;69.55;;;23.85;;
57047;SDS011;42934;54.294;18.598;2022-11-15T05:06:42;65.28;;;23.30;;
57047;SDS011;42934;54.294;18.598;2022-11-15T05:09:29;65.43;;;24.05;;
57047;SDS011;42934;54.294;18.598;2022-11-15T05:12:17;60.25;;;22.77;;
57047;SDS011;42934;54.294;18.598;2022-11-15T05:15:05;60.83;;;21.60;;
57047;SDS011;42934;54.294;18.598;2022-11-15T05:17:56;67.57;;;24.00;;
57047;SDS011;42934;54.294;18.598;2022-11-15T05:20:46;71.43;;;24.63;;
57047;SDS011;42934;54.294;18.598;2022-11-15T05:23:34;69.80;;;24.30;;
57047;SDS011;42934;54.294;18.598;2022-11-15T05:26:22;68.47;;;24.88;;
57047;SDS011;42934;54.294;18.598;2022-11-15T05:29:10;64.07;;;22.30;;
57047;SDS011;42934;54.294;18.598;2022-11-15T05:31:58;57.53;;;22.02;;
57047;SDS011;42934;54.294;18.598;2022-11-15T05:34:46;56.05;;;22.48;;
57047;SDS011;42934;54.294;18.598;2022-11-15T05:37:35;53.95;;;21.45;;
57047;SDS011;42934;54.294;18.598;2022-11-15T05:40:23;59.05;;;21.00;;
57047;SDS011;42934;54.294;18.598;2022-11-15T05:43:11;54.33;;;20.77;;
57047;SDS011;42934;54.294;18.598;2022-11-15T05:45:59;48.88;;;18.40;;
57047;SDS011;42934;54.294;18.598;2022-11-15T05:48:48;53.17;;;20.40;;
57047;SDS011;42934;54.294;18.598;2022-11-15T05:51:38;50.00;;;20.60;;
57047;SDS011;42934;54.294;18.598;2022-11-15T05:54:28;54.13;;;21.30;;
57047;SDS011;42934;54.294;18.598;2022-11-15T05:57:18;60.38;;;23.05;;
57047;SDS011;42934;54.294;18.598;2022-11-15T06:00:06;50.88;;;20.10;;
57047;SDS011;42934;54.294;18.598;2022-11-15T06:02:54;51.60;;;20.70;;
57047;SDS011;42934;54.294;18.598;2022-11-15T06:05:42;39.40;;;17.23;;
57047;SDS011;42934;54.294;18.598;2022-11-15T06:08:29;37.97;;;17.13;;
57047;SDS011;42934;54.294;18.598;2022-11-15T06:11:19;39.92;;;17.67;;
57047;SDS011;42934;54.294;18.598;2022-11-15T06:14:06;42.25;;;18.20;;
57047;SDS011;42934;54.294;18.598;2022-11-15T06:16:54;43.42;;;18.00;;
57047;SDS011;42934;54.294;18.598;2022-11-15T06:19:41;45.97;;;19.30;;
57047;SDS011;42934;54.294;18.598;2022-11-15T06:22:30;38.42;;;16.02;;
57047;SDS011;42934;54.294;18.598;2022-11-15T06:25:17;38.72;;;17.30;;
57047;SDS011;42934;54.294;18.598;2022-11-15T06:28:06;42.28;;;17.38;;
57047;SDS011;42934;54.294;18.598;2022-11-15T06:30:54;40.33;;;17.10;;
57047;SDS011;42934;54.294;18.598;2022-11-15T06:33:42;45.22;;;17.38;;
57047;SDS011;42934;54.294;18.598;2022-11-15T06:36:29;46.85;;;19.23;;
57047;SDS011;42934;54.294;18.598;2022-11-15T06:39:17;45.25;;;17.95;;
57047;SDS011;42934;54.294;18.598;2022-11-15T06:42:04;40.78;;;18.13;;
57047;SDS011;42934;54.294;18.598;2022-11-15T06:44:53;47.17;;;18.58;;
57047;SDS011;42934;54.294;18.598;2022-11-15T06:47:44;41.67;;;17.27;;
57047;SDS011;42934;54.294;18.598;2022-11-15T06:50:32;44.17;;;17.92;;
57047;SDS011;42934;54.294;18.598;2022-11-15T06:53:20;43.65;;;17.98;;
57047;SDS011;42934;54.294;18.598;2022-11-15T06:56:07;46.30;;;18.73;;
57047;SDS011;42934;54.294;18.598;2022-11-15T06:58:55;37.03;;;16.48;;
57047;SDS011;42934;54.294;18.598;2022-11-15T07:01:44;39.13;;;17.63;;
57047;SDS011;42934;54.294;18.598;2022-11-15T07:04:33;41.55;;;17.27;;
57047;SDS011;42934;54.294;18.598;2022-11-15T07:07:22;36.42;;;16.02;;
57047;SDS011;42934;54.294;18.598;2022-11-15T07:10:09;41.08;;;18.30;;
57047;SDS011;42934;54.294;18.598;2022-11-15T07:12:57;39.15;;;17.23;;
57047;SDS011;42934;54.294;18.598;2022-11-15T07:15:45;36.10;;;17.02;;
57047;SDS011;42934;54.294;18.598;2022-11-15T07:18:34;43.33;;;18.23;;
57047;SDS011;42934;54.294;18.598;2022-11-15T07:21:22;38.58;;;17.58;;
57047;SDS011;42934;54.294;18.598;2022-11-15T07:24:12;36.47;;;16.15;;
57047;SDS011;42934;54.294;18.598;2022-11-15T07:26:59;41.95;;;18.67;;
57047;SDS011;42934;54.294;18.598;2022-11-15T07:29:48;42.78;;;18.42;;
57047;SDS011;42934;54.294;18.598;2022-11-15T07:32:36;39.65;;;17.38;;
57047;SDS011;42934;54.294;18.598;2022-11-15T07:35:26;41.67;;;17.55;;
57047;SDS011;42934;54.294;18.598;2022-11-15T07:38:14;39.83;;;16.95;;
57047;SDS011;42934;54.294;18.598;2022-11-15T07:43:52;40.63;;;16.55;;
57047;SDS011;42934;54.294;18.598;2022-11-15T07:46:40;40.03;;;17.00;;
57047;SDS011;42934;54.294;18.598;2022-11-15T07:49:28;36.63;;;16.98;;
57047;SDS011;42934;54.294;18.598;2022-11-15T07:52:17;39.65;;;18.20;;
57047;SDS011;42934;54.294;18.598;2022-11-15T07:55:06;35.50;;;16.80;;
57047;SDS011;42934;54.294;18.598;2022-11-15T07:57:59;36.95;;;16.85;;
57047;SDS011;42934;54.294;18.598;2022-11-15T08:00:48;38.63;;;17.80;;
57047;SDS011;42934;54.294;18.598;2022-11-15T08:03:36;35.88;;;16.20;;
57047;SDS011;42934;54.294;18.598;2022-11-15T08:06:24;34.20;;;15.18;;
57047;SDS011;42934;54.294;18.598;2022-11-15T08:09:13;30.05;;;15.13;;
57047;SDS011;42934;54.294;18.598;2022-11-15T08:12:01;35.47;;;18.23;;
57047;SDS011;42934;54.294;18.598;2022-11-15T08:14:49;33.25;;;16.77;;
57047;SDS011;42934;54.294;18.598;2022-11-15T08:17:36;37.60;;;17.90;;
57047;SDS011;42934;54.294;18.598;2022-11-15T08:20:25;36.15;;;16.73;;
57047;SDS011;42934;54.294;18.598;2022-11-15T08:23:14;34.90;;;16.63;;
57047;SDS011;42934;54.294;18.598;2022-11-15T08:26:04;38.58;;;17.42;;
57047;SDS011;42934;54.294;18.598;2022-11-15T08:28:51;32.15;;;15.80;;
57047;SDS011;42934;54.294;18.598;2022-11-15T08:31:39;36.47;;;15.70;;
57047;SDS011;42934;54.294;18.598;2022-11-15T08:34:26;33.08;;;15.18;;
57047;SDS011;42934;54.294;18.598;2022-11-15T08:37:14;30.25;;;14.70;;
57047;SDS011;42934;54.294;18.598;2022-11-15T08:40:02;38.85;;;18.73;;
57047;SDS011;42934;54.294;18.598;2022-11-15T08:42:51;37.40;;;17.02;;
57047;SDS011;42934;54.294;18.598;2022-11-15T08:45:39;38.65;;;18.35;;
57047;SDS011;42934;54.294;18.598;2022-11-15T08:48:27;37.80;;;17.38;;
57047;SDS011;42934;54.294;18.598;2022-11-15T08:51:16;39.53;;;18.13;;
57047;SDS011;42934;54.294;18.598;2022-11-15T08:54:04;44.00;;;21.00;;
57047;SDS011;42934;54.294;18.598;2022-11-15T08:56:52;34.05;;;17.67;;
57047;SDS011;42934;54.294;18.598;2022-11-15T08:59:41;43.13;;;19.48;;
57047;SDS011;42934;54.294;18.598;2022-11-15T09:02:28;37.97;;;17.65;;
57047;SDS011;42934;54.294;18.598;2022-11-15T09:05:16;38.25;;;16.20;;
57047;SDS011;42934;54.294;18.598;2022-11-15T09:08:04;34.80;;;16.20;;
57047;SDS011;42934;54.294;18.598;2022-11-15T09:11:12;37.55;;;16.48;;
57047;SDS011;42934;54.294;18.598;2022-11-15T09:14:01;36.85;;;16.40;;
57047;SDS011;42934;54.294;18.598;2022-11-15T09:16:50;36.08;;;15.93;;
57047;SDS011;42934;54.294;18.598;2022-11-15T09:19:38;38.97;;;18.38;;
57047;SDS011;42934;54.294;18.598;2022-11-15T09:22:26;41.08;;;18.08;;
57047;SDS011;42934;54.294;18.598;2022-11-15T09:25:13;38.65;;;18.63;;
57047;SDS011;42934;54.294;18.598;2022-11-15T09:28:01;36.35;;;17.25;;
57047;SDS011;42934;54.294;18.598;2022-11-15T09:30:55;36.25;;;16.88;;
57047;SDS011;42934;54.294;18.598;2022-11-15T09:33:46;37.30;;;17.10;;
57047;SDS011;42934;54.294;18.598;2022-11-15T09:36:33;38.53;;;17.48;;
57047;SDS011;42934;54.294;18.598;2022-11-15T09:39:21;33.83;;;16.38;;
57047;SDS011;42934;54.294;18.598;2022-11-15T09:42:13;32.80;;;15.48;;
57047;SDS011;42934;54.294;18.598;2022-11-15T09:45:17;33.70;;;16.70;;
57047;SDS011;42934;54.294;18.598;2022-11-15T09:51:30;34.00;;;16.10;;
57047;SDS011;42934;54.294;18.598;2022-11-15T09:54:03;35.17;;;15.85;;
57047;SDS011;42934;54.294;18.598;2022-11-15T09:57:02;34.25;;;16.15;;
57047;SDS011;42934;54.294;18.598;2022-11-15T10:03:08;35.70;;;15.95;;
57047;SDS011;42934;54.294;18.598;2022-11-15T10:05:40;35.95;;;15.60;;
57047;SDS011;42934;54.294;18.598;2022-11-15T10:08:25;40.78;;;17.52;;
57047;SDS011;42934;54.294;18.598;2022-11-15T10:11:03;33.15;;;14.60;;
57047;SDS011;42934;54.294;18.598;2022-11-15T10:13:54;39.60;;;17.23;;
57047;SDS011;42934;54.294;18.598;2022-11-15T10:16:31;37.83;;;16.25;;
57047;SDS011;42934;54.294;18.598;2022-11-15T10:19:26;32.88;;;14.43;;
57047;SDS011;42934;54.294;18.598;2022-11-15T10:22:06;31.33;;;14.75;;
57047;SDS011;42934;54.294;18.598;2022-11-15T10:24:49;31.23;;;15.32;;
57047;SDS011;42934;54.294;18.598;2022-11-15T10:27:26;71.65;;;46.10;;
57047;SDS011;42934;54.294;18.598;2022-11-15T10:29:57;40.58;;;21.88;;
57047;SDS011;42934;54.294;18.598;2022-11-15T10:32:26;42.95;;;20.08;;
57047;SDS011;42934;54.294;18.598;2022-11-15T10:34:56;40.45;;;17.77;;
57047;SDS011;42934;54.294;18.598;2022-11-15T10:37:28;36.83;;;17.73;;
57047;SDS011;42934;54.294;18.598;2022-11-15T10:40:13;42.53;;;19.77;;
57047;SDS011;42934;54.294;18.598;2022-11-15T10:42:45;43.10;;;20.13;;
57047;SDS011;42934;54.294;18.598;2022-11-15T10:45:25;53.58;;;23.13;;
57047;SDS011;42934;54.294;18.598;2022-11-15T10:48:14;46.30;;;20.95;;
57047;SDS011;42934;54.294;18.598;2022-11-15T10:50:50;367.27;;;95.32;;
57047;SDS011;42934;54.294;18.598;2022-11-15T10:53:22;242.60;;;87.25;;
57047;SDS011;42934;54.294;18.598;2022-11-15T10:55:59;45.80;;;21.30;;
57047;SDS011;42934;54.294;18.598;2022-11-15T10:58:35;47.17;;;21.95;;
57047;SDS011;42934;54.294;18.598;2022-11-15T11:01:10;76.60;;;36.15;;
57047;SDS011;42934;54.294;18.598;2022-11-15T11:03:42;128.13;;;57.22;;
57047;SDS011;42934;54.294;18.598;2022-11-15T11:06:13;79.45;;;28.70;;
57047;SDS011;42934;54.294;18.598;2022-11-15T11:08:54;152.50;;;44.78;;
57047;SDS011;42934;54.294;18.598;2022-11-15T11:14:11;87.53;;;35.47;;
57047;SDS011;42934;54.294;18.598;2022-11-15T11:16:42;85.63;;;36.17;;
57047;SDS011;42934;54.294;18.598;2022-11-15T11:19:27;89.90;;;31.02;;
57047;SDS011;42934;54.294;18.598;2022-11-15T11:22:20;51.53;;;22.25;;
57047;SDS011;42934;54.294;18.598;2022-11-15T11:25:04;47.08;;;21.55;;
57047;SDS011;42934;54.294;18.598;2022-11-15T11:27:45;53.47;;;22.08;;
57047;SDS011;42934;54.294;18.598;2022-11-15T11:30:29;57.20;;;23.65;;
57047;SDS011;42934;54.294;18.598;2022-11-15T11:33:13;54.25;;;21.95;;
57047;SDS011;42934;54.294;18.598;2022-11-15T11:35:50;47.70;;;21.25;;
57047;SDS011;42934;54.294;18.598;2022-11-15T11:38:33;50.45;;;22.48;;
57047;SDS011;42934;54.294;18.598;2022-11-15T11:41:34;45.40;;;20.42;;
57047;SDS011;42934;54.294;18.598;2022-11-15T11:44:17;39.67;;;18.08;;
57047;SDS011;42934;54.294;18.598;2022-11-15T11:46:56;36.88;;;18.27;;
57047;SDS011;42934;54.294;18.598;2022-11-15T11:49:31;42.53;;;19.35;;
57047;SDS011;42934;54.294;18.598;2022-11-15T11:52:09;38.83;;;18.48;;
57047;SDS011;42934;54.294;18.598;2022-11-15T11:54:48;62.78;;;29.95;;
57047;SDS011;42934;54.294;18.598;2022-11-15T11:57:33;48.38;;;21.38;;
57047;SDS011;42934;54.294;18.598;2022-11-15T12:00:17;42.63;;;19.50;;
57047;SDS011;42934;54.294;18.598;2022-11-15T12:02:50;41.63;;;20.73;;
57047;SDS011;42934;54.294;18.598;2022-11-15T12:05:30;41.80;;;19.40;;
57047;SDS011;42934;54.294;18.598;2022-11-15T12:08:09;46.25;;;22.52;;
57047;SDS011;42934;54.294;18.598;2022-11-15T12:11:00;42.35;;;20.80;;
57047;SDS011;42934;54.294;18.598;2022-11-15T12:13:34;58.35;;;26.25;;
57047;SDS011;42934;54.294;18.598;2022-11-15T12:16:07;46.83;;;21.42;;
57047;SDS011;42934;54.294;18.598;2022-11-15T12:18:44;48.55;;;22.98;;
57047;SDS011;42934;54.294;18.598;2022-11-15T12:21:18;48.78;;;22.27;;
57047;SDS011;42934;54.294;18.598;2022-11-15T12:23:55;48.65;;;23.02;;
57047;SDS011;42934;54.294;18.598;2022-11-15T12:26:32;42.95;;;20.55;;
57047;SDS011;42934;54.294;18.598;2022-11-15T12:29:06;44.40;;;20.27;;
57047;SDS011;42934;54.294;18.598;2022-11-15T12:31:43;41.63;;;19.67;;
57047;SDS011;42934;54.294;18.598;2022-11-15T12:34:29;46.58;;;20.55;;
57047;SDS011;42934;54.294;18.598;2022-11-15T12:40:16;44.88;;;21.40;;
57047;SDS011;42934;54.294;18.598;2022-11-15T12:43:01;50.63;;;22.83;;
57047;SDS011;42934;54.294;18.598;2022-11-15T12:46:01;49.40;;;22.13;;
57047;SDS011;42934;54.294;18.598;2022-11-15T12:57:38;43.90;;;20.45;;
57047;SDS011;42934;54.294;18.598;2022-11-15T13:03:18;48.97;;;21.48;;
57047;SDS011;42934;54.294;18.598;2022-11-15T13:05:59;49.25;;;21.23;;
57047;SDS011;42934;54.294;18.598;2022-11-15T13:08:37;46.88;;;21.20;;
57047;SDS011;42934;54.294;18.598;2022-11-15T13:17:26;52.42;;;21.98;;
57047;SDS011;42934;54.294;18.598;2022-11-15T13:20:07;46.63;;;20.58;;
57047;SDS011;42934;54.294;18.598;2022-11-15T13:22:51;52.30;;;22.27;;
57047;SDS011;42934;54.294;18.598;2022-11-15T13:28:42;56.72;;;22.58;;
57047;SDS011;42934;54.294;18.598;2022-11-15T13:31:18;56.30;;;23.80;;
57047;SDS011;42934;54.294;18.598;2022-11-15T13:34:02;55.03;;;23.42;;
57047;SDS011;42934;54.294;18.598;2022-11-15T13:37:03;47.55;;;20.33;;
57047;SDS011;42934;54.294;18.598;2022-11-15T13:39:39;44.47;;;21.00;;
57047;SDS011;42934;54.294;18.598;2022-11-15T13:44:54;52.13;;;21.83;;
57047;SDS011;42934;54.294;18.598;2022-11-15T13:47:24;42.90;;;19.33;;
57047;SDS011;42934;54.294;18.598;2022-11-15T13:49:56;46.78;;;20.17;;
57047;SDS011;42934;54.294;18.598;2022-11-15T13:52:27;46.13;;;20.08;;
57047;SDS011;42934;54.294;18.598;2022-11-15T13:55:02;41.97;;;19.60;;
57047;SDS011;42934;54.294;18.598;2022-11-15T13:57:38;41.20;;;19.20;;
57047;SDS011;42934;54.294;18.598;2022-11-15T14:00:24;42.20;;;19.42;;
57047;SDS011;42934;54.294;18.598;2022-11-15T14:02:55;41.08;;;19.13;;
57047;SDS011;42934;54.294;18.598;2022-11-15T14:05:33;40.33;;;19.80;;
57047;SDS011;42934;54.294;18.598;2022-11-15T14:08:04;53.70;;;28.55;;
57047;SDS011;42934;54.294;18.598;2022-11-15T14:16:37;41.63;;;20.48;;
57047;SDS011;42934;54.294;18.598;2022-11-15T14:19:09;42.28;;;20.15;;
57047;SDS011;42934;54.294;18.598;2022-11-15T14:24:42;41.53;;;19.00;;
57047;SDS011;42934;54.294;18.598;2022-11-15T14:27:23;37.40;;;18.23;;
57047;SDS011;42934;54.294;18.598;2022-11-15T14:29:54;41.20;;;18.80;;
57047;SDS011;42934;54.294;18.598;2022-11-15T14:32:25;38.22;;;19.15;;
57047;SDS011;42934;54.294;18.598;2022-11-15T14:34:57;38.15;;;19.42;;
57047;SDS011;42934;54.294;18.598;2022-11-15T14:37:27;38.22;;;19.23;;
57047;SDS011;42934;54.294;18.598;2022-11-15T14:40:00;38.53;;;18.27;;
57047;SDS011;42934;54.294;18.598;2022-11-15T14:45:00;34.13;;;15.93;;
57047;SDS011;42934;54.294;18.598;2022-11-15T14:47:30;32.57;;;14.10;;
57047;SDS011;42934;54.294;18.598;2022-11-15T14:49:59;34.85;;;15.25;;
57047;SDS011;42934;54.294;18.598;2022-11-15T14:52:30;29.27;;;14.32;;
57047;SDS011;42934;54.294;18.598;2022-11-15T14:55:02;31.13;;;14.40;;
57047;SDS011;42934;54.294;18.598;2022-11-15T14:57:41;32.72;;;15.23;;
57047;SDS011;42934;54.294;18.598;2022-11-15T15:00:12;32.78;;;17.08;;
57047;SDS011;42934;54.294;18.598;2022-11-15T15:05:13;30.33;;;14.63;;
57047;SDS011;42934;54.294;18.598;2022-11-15T15:07:44;31.20;;;13.93;;
57047;SDS011;42934;54.294;18.598;2022-11-15T15:10:14;38.58;;;17.63;;
57047;SDS011;42934;54.294;18.598;2022-11-15T15:13:04;28.88;;;14.68;;
57047;SDS011;42934;54.294;18.598;2022-11-15T15:15:36;31.33;;;14.45;;
57047;SDS011;42934;54.294;18.598;2022-11-15T15:18:07;36.75;;;17.08;;
57047;SDS011;42934;54.294;18.598;2022-11-15T15:20:38;39.90;;;18.73;;
57047;SDS011;42934;54.294;18.598;2022-11-15T15:23:10;45.10;;;21.33;;
57047;SDS011;42934;54.294;18.598;2022-11-15T15:25:44;38.83;;;16.70;;
57047;SDS011;42934;54.294;18.598;2022-11-15T15:28:15;32.40;;;15.93;;
57047;SDS011;42934;54.294;18.598;2022-11-15T15:30:44;29.67;;;14.85;;
57047;SDS011;42934;54.294;18.598;2022-11-15T15:33:15;35.05;;;17.98;;
57047;SDS011;42934;54.294;18.598;2022-11-15T15:35:44;37.30;;;19.60;;
57047;SDS011;42934;54.294;18.598;2022-11-15T15:38:13;41.03;;;21.90;;
57047;SDS011;42934;54.294;18.598;2022-11-15T15:40:43;37.83;;;18.88;;
57047;SDS011;42934;54.294;18.598;2022-11-15T15:43:12;33.38;;;18.45;;
57047;SDS011;42934;54.294;18.598;2022-11-15T15:45:41;31.73;;;16.57;;
57047;SDS011;42934;54.294;18.598;2022-11-15T15:48:12;30.48;;;15.02;;
57047;SDS011;42934;54.294;18.598;2022-11-15T15:50:43;32.15;;;16.20;;
57047;SDS011;42934;54.294;18.598;2022-11-15T15:53:14;36.55;;;17.67;;
57047;SDS011;42934;54.294;18.598;2022-11-15T15:58:14;37.88;;;18.58;;
57047;SDS011;42934;54.294;18.598;2022-11-15T16:00:43;36.38;;;17.08;;
57047;SDS011;42934;54.294;18.598;2022-11-15T16:03:12;38.20;;;17.85;;
57047;SDS011;42934;54.294;18.598;2022-11-15T16:05:43;36.80;;;20.35;;
57047;SDS011;42934;54.294;18.598;2022-11-15T16:08:16;35.95;;;18.30;;
57047;SDS011;42934;54.294;18.598;2022-11-15T16:10:48;33.88;;;16.63;;
57047;SDS011;42934;54.294;18.598;2022-11-15T16:13:17;37.28;;;17.50;;
57047;SDS011;42934;54.294;18.598;2022-11-15T16:15:47;35.95;;;17.25;;
57047;SDS011;42934;54.294;18.598;2022-11-15T16:18:21;31.05;;;15.75;;
57047;SDS011;42934;54.294;18.598;2022-11-15T16:20:50;34.60;;;16.35;;
57047;SDS011;42934;54.294;18.598;2022-11-15T16:23:23;39.00;;;16.25;;
57047;SDS011;42934;54.294;18.598;2022-11-15T16:25:53;39.30;;;18.80;;
57047;SDS011;42934;54.294;18.598;2022-11-15T16:30:59;37.20;;;18.00;;
57047;SDS011;42934;54.294;18.598;2022-11-15T16:33:30;37.35;;;18.73;;
57047;SDS011;42934;54.294;18.598;2022-11-15T16:36:00;45.55;;;21.80;;
57047;SDS011;42934;54.294;18.598;2022-11-15T16:38:31;40.33;;;20.20;;
57047;SDS011;42934;54.294;18.598;2022-11-15T16:41:01;37.80;;;18.58;;
57047;SDS011;42934;54.294;18.598;2022-11-15T16:43:31;37.75;;;18.60;;
57047;SDS011;42934;54.294;18.598;2022-11-15T16:46:02;38.45;;;18.80;;
57047;SDS011;42934;54.294;18.598;2022-11-15T16:48:41;34.33;;;17.80;;
57047;SDS011;42934;54.294;18.598;2022-11-15T16:51:10;32.25;;;16.95;;